createdAt,value
2018-09-11T00:08:04.085Z,5.30
2018-09-11T00:10:39.550Z,8.48
2018-09-11T00:13:09.707Z,8.10
2018-09-11T00:16:03.785Z,6.22
2018-09-11T00:19:37.785Z,7.50
2018-09-11T00:34:15.249Z,6.33
2018-09-11T00:39:49.925Z,9.67
2018-09-11T00:50:54.678Z,7.67
2018-09-11T00:56:23.920Z,6.57
2018-09-11T00:59:11.231Z,7.28
2018-09-11T01:19:40.698Z,12.03
2018-09-11T01:22:46.286Z,10.32
2018-09-11T01:32:28.227Z,10.27
2018-09-11T01:37:39.352Z,9.80
2018-09-11T01:40:17.933Z,11.78
2018-09-11T01:42:49.172Z,9.40
2018-09-11T01:45:37.327Z,9.28
2018-09-11T01:48:08.344Z,13.00
2018-09-11T01:53:37.750Z,14.30
2018-09-11T01:58:49.363Z,9.80
2018-09-11T02:01:47.118Z,14.65
2018-09-11T02:04:35.264Z,10.30
2018-09-11T02:07:46.999Z,10.45
2018-09-11T02:10:25.104Z,8.70
2018-09-11T02:13:05.525Z,17.67
2018-09-11T02:18:48.794Z,8.55
2018-09-11T02:21:21.659Z,14.00
2018-09-11T02:26:46.943Z,12.50
2018-09-11T02:32:37.535Z,14.33
2018-09-11T02:47:43.162Z,11.97
2018-09-11T02:53:55.904Z,14.50
2018-09-11T02:59:42.220Z,10.88
2018-09-11T03:05:57.997Z,13.60
2018-09-11T03:08:28.188Z,9.90
2018-09-11T03:19:09.411Z,13.20
2018-09-11T03:21:38.146Z,13.58
2018-09-11T03:24:25.525Z,16.82
2018-09-11T03:36:16.877Z,15.88
2018-09-11T03:38:45.649Z,12.93
2018-09-11T03:41:14.705Z,11.00
2018-09-11T03:46:29.438Z,14.83
2018-09-11T03:48:59.891Z,13.08
2018-09-11T03:58:24.490Z,14.15
2018-09-11T04:04:22.906Z,12.25
2018-09-11T04:10:54.226Z,15.48
2018-09-11T04:16:21.250Z,14.90
2018-09-11T04:46:16.752Z,11.27
2018-09-11T04:49:00.016Z,12.55
2018-09-11T04:51:32.765Z,13.05
2018-09-11T04:54:02.099Z,15.65
2018-09-11T04:56:43.503Z,11.30
2018-09-11T04:59:15.071Z,13.05
2018-09-11T05:02:06.081Z,9.43
2018-09-11T05:07:50.993Z,9.67
2018-09-11T05:10:47.478Z,11.40
2018-09-11T05:16:11.136Z,12.63
2018-09-11T05:18:41.781Z,9.33
2018-09-11T05:24:32.568Z,8.27
2018-09-11T05:38:07.751Z,9.20
2018-09-11T05:42:13.140Z,7.22
2018-09-11T05:45:13.106Z,5.53
2018-09-11T05:50:30.699Z,8.67
2018-09-11T05:55:44.776Z,11.00
2018-09-11T05:58:16.951Z,9.60
2018-09-11T07:21:52.074Z,6.93
2018-09-11T07:27:27.574Z,7.55
2018-09-11T07:29:57.977Z,11.15
2018-09-11T07:35:24.511Z,8.27
2018-09-11T07:37:54.197Z,7.80
2018-09-11T07:40:23.863Z,10.18
2018-09-11T07:42:55.965Z,7.90
2018-09-11T07:45:25.886Z,8.65
2018-09-11T07:47:54.489Z,9.05
2018-09-11T07:50:23.536Z,8.45
2018-09-11T07:52:52.231Z,8.83
2018-09-11T07:55:27.684Z,6.08
2018-09-11T07:57:56.238Z,8.18
2018-09-11T08:00:26.582Z,9.40
2018-09-11T08:02:55.187Z,10.68
2018-09-11T08:05:24.450Z,7.00
2018-09-11T08:07:54.587Z,5.72
2018-09-11T08:10:24.173Z,4.35
2018-09-11T08:13:00.415Z,9.30
2018-09-11T08:15:33.304Z,6.37
2018-09-11T08:18:05.303Z,4.90
2018-09-11T08:20:33.894Z,4.75
2018-09-11T08:23:05.033Z,7.87
2018-09-11T08:25:37.946Z,4.67
2018-09-11T08:28:06.637Z,7.67
2018-09-11T08:30:35.443Z,6.47
2018-09-11T08:35:40.042Z,3.57
2018-09-11T08:38:08.592Z,5.92
2018-09-11T08:40:37.089Z,7.72
2018-09-11T08:43:08.069Z,8.08
2018-09-11T08:45:38.934Z,8.53
2018-09-11T08:48:11.466Z,6.25
2018-09-11T08:50:43.995Z,9.73
2018-09-11T08:53:14.714Z,7.42
2018-09-11T08:55:44.013Z,7.58
2018-09-11T08:58:13.764Z,6.62
2018-09-11T09:00:43.295Z,6.17
2018-09-11T09:03:21.005Z,9.43
2018-09-11T09:08:40.423Z,10.00
2018-09-11T09:11:08.880Z,8.38
2018-09-11T09:13:41.619Z,5.58
2018-09-11T09:16:10.140Z,9.18
2018-09-11T09:18:40.058Z,9.10
2018-09-11T09:21:21.413Z,6.85
2018-09-11T09:24:01.677Z,9.75
2018-09-11T09:26:30.261Z,7.53
2018-09-11T09:28:58.680Z,6.35
2018-09-11T09:31:28.597Z,6.60
2018-09-11T09:33:57.251Z,8.38
2018-09-11T09:36:29.983Z,5.67
2018-09-11T09:39:01.393Z,9.48
2018-09-11T09:41:31.903Z,8.45
2018-09-11T09:44:02.427Z,6.83
2018-09-11T09:46:35.435Z,9.80
2018-09-11T09:49:03.978Z,7.50
2018-09-11T09:51:32.505Z,8.08
2018-09-11T09:54:00.980Z,6.95
2018-09-11T09:56:29.486Z,7.35
2018-09-11T09:59:00.010Z,7.67
2018-09-11T10:01:36.895Z,6.90
2018-09-11T10:04:07.544Z,7.75
2018-09-11T10:06:36.196Z,8.93
2018-09-11T10:09:07.214Z,7.58
2018-09-11T10:11:35.647Z,9.88
2018-09-11T10:14:04.273Z,10.58
2018-09-11T10:19:21.055Z,13.90
2018-09-11T10:21:59.651Z,7.53
2018-09-11T10:24:28.395Z,10.78
2018-09-11T10:26:57.193Z,7.85
2018-09-11T10:29:25.728Z,4.83
2018-09-11T10:31:54.658Z,9.88
2018-09-11T10:34:28.793Z,8.38
2018-09-11T10:36:59.270Z,9.00
2018-09-11T10:39:27.784Z,7.78
2018-09-11T10:41:56.585Z,10.82
2018-09-11T10:44:25.369Z,8.00
2018-09-11T10:46:54.004Z,5.75
2018-09-11T10:49:22.876Z,7.53
2018-09-11T10:51:51.426Z,8.15
2018-09-11T10:54:21.327Z,6.92
2018-09-11T10:56:52.096Z,4.92
2018-09-11T10:59:30.293Z,4.85
2018-09-11T11:01:59.068Z,8.38
2018-09-11T11:04:28.624Z,10.35
2018-09-11T11:06:57.019Z,7.90
2018-09-11T11:09:34.483Z,9.20
2018-09-11T11:14:46.637Z,6.97
2018-09-11T11:17:15.216Z,6.12
2018-09-11T11:19:43.649Z,6.83
2018-09-11T11:22:12.075Z,7.90
2018-09-11T11:24:40.639Z,6.17
2018-09-11T11:27:09.263Z,9.93
2018-09-11T11:29:41.196Z,5.17
2018-09-11T11:32:16.888Z,9.23
2018-09-11T11:34:50.758Z,8.35
2018-09-11T11:37:23.064Z,7.47
2018-09-11T11:39:52.454Z,10.10
2018-09-11T11:45:11.885Z,7.53
2018-09-11T11:50:35.525Z,8.43
2018-09-11T11:53:03.998Z,8.90
2018-09-11T11:55:32.866Z,7.30
2018-09-11T11:58:01.306Z,7.95
2018-09-11T12:00:30.841Z,7.45
2018-09-11T12:06:06.391Z,6.10
2018-09-11T12:08:36.342Z,7.53
2018-09-11T12:11:08.169Z,9.75
2018-09-11T12:13:37.110Z,7.90
2018-09-11T12:16:22.721Z,9.43
2018-09-11T12:18:54.653Z,10.65
2018-09-11T12:21:23.341Z,8.15
2018-09-11T12:23:58.632Z,8.45
2018-09-11T12:26:27.353Z,9.85
2018-09-11T12:29:00.315Z,14.33
2018-09-11T12:31:28.973Z,10.28
2018-09-11T12:33:57.509Z,11.83
2018-09-11T12:36:27.496Z,12.15
2018-09-11T12:38:55.976Z,10.23
2018-09-11T12:41:28.604Z,10.45
2018-09-11T12:44:03.571Z,13.18
2018-09-11T12:46:50.971Z,12.23
2018-09-11T12:49:26.690Z,11.97
2018-09-11T12:51:56.477Z,12.53
2018-09-11T12:54:28.200Z,11.48
2018-09-11T12:57:04.192Z,14.33
2018-09-11T12:59:32.968Z,15.68
2018-09-11T13:02:15.231Z,10.58
2018-09-11T13:04:44.127Z,11.03
2018-09-11T13:07:19.831Z,11.90
2018-09-11T13:09:48.490Z,12.23
2018-09-11T13:12:17.236Z,8.50
2018-09-11T13:14:50.055Z,10.25
2018-09-11T13:17:31.591Z,13.75
2018-09-11T13:20:03.031Z,12.53
2018-09-11T13:22:31.677Z,12.98
2018-09-11T13:25:01.473Z,11.73
2018-09-11T13:27:32.948Z,15.00
2018-09-11T13:30:01.521Z,11.50
2018-09-11T13:32:35.139Z,13.28
2018-09-11T13:35:03.731Z,10.05
2018-09-11T13:37:32.301Z,13.50
2018-09-11T13:40:02.121Z,12.28
2018-09-11T13:42:30.906Z,11.33
2018-09-11T13:45:03.901Z,10.80
2018-09-11T13:47:38.709Z,16.95
2018-09-11T13:50:16.097Z,18.82
2018-09-11T13:52:53.385Z,15.18
2018-09-11T13:55:36.124Z,13.55
2018-09-11T13:58:12.885Z,15.93
2018-09-11T14:00:43.179Z,19.02
2018-09-11T14:03:11.770Z,16.48
2018-09-11T14:06:14.324Z,12.07
2018-09-11T14:08:42.940Z,12.07
2018-09-11T14:11:12.254Z,10.60
2018-09-11T14:13:41.032Z,17.57
2018-09-11T14:16:09.970Z,14.18
2018-09-11T14:18:38.616Z,13.10
2018-09-11T14:21:07.284Z,16.15
2018-09-11T14:23:36.397Z,14.43
2018-09-11T14:26:05.822Z,14.85
2018-09-11T14:28:34.302Z,17.23
2018-09-11T14:31:02.737Z,14.63
2018-09-11T14:33:34.528Z,12.10
2018-09-11T14:36:07.029Z,16.35
2018-09-11T14:38:40.261Z,15.75
2018-09-11T14:41:09.747Z,13.78
2018-09-11T14:43:40.497Z,13.90
2018-09-11T14:46:10.151Z,13.58
2018-09-11T14:48:38.968Z,16.25
2018-09-11T14:51:07.666Z,13.03
2018-09-11T14:53:37.265Z,13.08
2018-09-11T14:56:08.973Z,14.58
2018-09-11T14:58:37.334Z,15.95
2018-09-11T15:01:07.609Z,11.75
2018-09-11T15:06:27.592Z,16.37
2018-09-11T15:08:58.435Z,13.93
2018-09-11T15:11:27.826Z,11.83
2018-09-11T15:13:56.225Z,15.85
2018-09-11T15:16:27.979Z,14.13
2018-09-11T15:19:03.264Z,13.95
2018-09-11T15:21:31.777Z,15.28
2018-09-11T15:24:00.223Z,13.68
2018-09-11T15:26:28.750Z,16.85
2018-09-11T15:28:57.302Z,13.78
2018-09-11T15:31:25.805Z,12.40
2018-09-11T15:34:02.045Z,18.20
2018-09-11T15:39:13.776Z,13.57
2018-09-11T15:41:43.121Z,13.68
2018-09-11T15:44:13.789Z,11.97
2018-09-11T15:46:43.356Z,14.58
2018-09-11T15:49:13.097Z,11.25
2018-09-11T15:51:48.754Z,15.20
2018-09-11T15:54:17.238Z,21.68
2018-09-11T15:59:28.780Z,15.03
2018-09-11T16:01:57.393Z,13.83
2018-09-11T16:04:26.113Z,10.68
2018-09-11T16:07:12.515Z,15.75
2018-09-11T16:09:41.245Z,18.37
2018-09-11T16:14:56.621Z,13.43
2018-09-11T16:17:25.187Z,19.23
2018-09-11T16:19:53.757Z,14.85
2018-09-11T16:22:27.661Z,13.13
2018-09-11T16:24:57.316Z,15.78
2018-09-11T16:27:25.686Z,18.55
2018-09-11T16:29:54.555Z,16.10
2018-09-11T16:32:31.861Z,14.43
2018-09-11T16:35:01.099Z,16.40
2018-09-11T16:37:32.634Z,14.83
2018-09-11T16:40:02.710Z,13.93
2018-09-11T16:42:33.086Z,13.68
2018-09-11T16:45:01.605Z,14.53
2018-09-11T16:47:30.033Z,11.22
2018-09-11T16:50:02.403Z,16.75
2018-09-11T16:52:30.754Z,14.18
2018-09-11T16:54:59.133Z,15.90
2018-09-11T16:57:38.226Z,11.65
2018-09-11T17:00:07.087Z,9.88
2018-09-11T17:02:39.781Z,12.53
2018-09-11T17:05:08.217Z,10.53
2018-09-11T17:07:36.748Z,12.20
2018-09-11T17:10:08.129Z,11.97
2018-09-11T17:12:42.763Z,11.78
2018-09-11T17:15:16.793Z,7.37
2018-09-11T17:17:48.345Z,9.95
2018-09-11T17:20:30.392Z,11.30
2018-09-11T17:22:59.874Z,15.70
2018-09-11T17:25:30.297Z,11.20
2018-09-11T17:27:58.660Z,8.70
2018-09-11T17:30:35.337Z,10.40
2018-09-11T17:33:03.768Z,13.05
2018-09-11T17:35:36.091Z,10.10
2018-09-11T17:38:12.922Z,10.32
2018-09-11T17:40:41.594Z,11.88
2018-09-11T17:43:19.155Z,9.65
2018-09-11T17:45:47.608Z,17.02
2018-09-11T17:48:16.590Z,13.18
2018-09-11T17:50:44.948Z,10.28
2018-09-11T17:53:13.320Z,14.75
2018-09-11T17:55:42.946Z,9.48
2018-09-11T17:58:20.072Z,16.12
2018-09-11T18:00:48.515Z,15.98
2018-09-11T18:03:20.641Z,12.93
2018-09-11T18:06:19.492Z,11.60
2018-09-11T18:08:50.324Z,12.90
2018-09-11T18:11:19.862Z,15.45
2018-09-11T18:13:48.338Z,17.00
2018-09-11T18:16:17.105Z,14.20
2018-09-11T18:18:45.842Z,16.30
2018-09-11T18:21:15.436Z,17.40
2018-09-11T18:23:44.179Z,19.90
2018-09-11T18:26:12.659Z,13.35
2018-09-11T18:28:44.253Z,13.50
2018-09-11T18:33:47.734Z,18.07
2018-09-11T18:36:21.510Z,18.00
2018-09-11T18:38:50.982Z,15.93
2018-09-11T18:41:21.978Z,18.62
2018-09-11T18:43:51.521Z,21.93
2018-09-11T18:46:27.246Z,17.00
2018-09-11T18:49:00.171Z,16.12
2018-09-11T18:51:30.465Z,12.63
2018-09-11T18:54:02.167Z,16.93
2018-09-11T18:56:31.555Z,13.83
2018-09-11T18:59:02.021Z,13.50
2018-09-11T19:01:33.633Z,19.42
2018-09-11T19:04:02.582Z,15.25
2018-09-11T19:06:30.981Z,20.80
2018-09-11T19:08:59.390Z,15.95
2018-09-11T19:11:38.157Z,9.23
2018-09-11T19:14:09.706Z,13.22
2018-09-11T19:16:38.353Z,10.78
2018-09-11T19:19:09.900Z,10.90
2018-09-11T19:21:38.873Z,13.50
2018-09-11T19:24:16.500Z,10.35
2018-09-11T19:26:54.818Z,8.68
2018-09-11T19:29:24.370Z,10.88
2018-09-11T19:31:58.809Z,12.47
2018-09-11T19:34:31.242Z,12.93
2018-09-11T19:36:59.623Z,9.15
2018-09-11T19:39:28.308Z,10.08
2018-09-11T19:41:56.862Z,14.45
2018-09-11T19:44:25.323Z,11.43
2018-09-11T19:47:02.615Z,14.85
2018-09-11T19:49:32.405Z,10.95
2018-09-11T19:52:00.791Z,11.68
2018-09-11T19:57:09.003Z,15.30
2018-09-11T19:59:40.934Z,10.20
2018-09-11T20:02:09.425Z,11.65
2018-09-11T20:04:41.218Z,12.75
2018-09-11T20:07:12.823Z,14.10
2018-09-11T20:09:41.442Z,11.20
2018-09-11T20:12:11.329Z,13.48
2018-09-11T20:14:47.247Z,11.35
2018-09-11T20:17:15.659Z,13.72
2018-09-11T20:19:45.117Z,14.40
2018-09-11T20:22:16.692Z,12.33
2018-09-11T20:24:45.212Z,11.48
2018-09-11T20:27:14.786Z,12.23
2018-09-11T20:29:44.535Z,13.13
2018-09-11T20:32:13.238Z,17.05
2018-09-11T20:34:41.722Z,14.00
2018-09-11T20:37:11.315Z,12.28
2018-09-11T20:39:39.770Z,11.70
2018-09-11T20:42:11.517Z,13.90
2018-09-11T20:44:40.974Z,13.58
2018-09-11T20:47:09.632Z,11.12
2018-09-11T20:49:45.371Z,13.03
2018-09-11T20:52:13.929Z,10.55
2018-09-11T20:54:42.492Z,12.60
2018-09-11T20:57:17.157Z,14.90
2018-09-11T20:59:49.848Z,14.33
2018-09-11T21:02:22.271Z,14.38
2018-09-11T21:04:53.784Z,17.75
2018-09-11T21:07:26.722Z,11.78
2018-09-11T21:09:55.300Z,10.50
2018-09-11T21:12:29.954Z,10.93
2018-09-11T21:14:58.617Z,14.10
2018-09-11T21:20:03.756Z,12.83
2018-09-11T21:22:34.949Z,12.73
2018-09-11T21:25:10.339Z,9.38
2018-09-11T21:30:15.208Z,12.90
2018-09-11T21:32:47.255Z,11.73
2018-09-11T21:35:17.479Z,11.57
2018-09-11T21:40:34.986Z,13.00
2018-09-11T21:43:03.417Z,13.72
2018-09-11T21:45:39.385Z,11.48
2018-09-11T21:48:07.965Z,19.00
2018-09-11T21:50:36.334Z,10.60
2018-09-11T21:53:04.819Z,8.88
2018-09-11T21:55:37.381Z,11.28
2018-09-11T21:58:06.747Z,13.60
2018-09-11T22:00:38.301Z,12.33
2018-09-11T22:03:06.932Z,13.40
2018-09-11T22:05:35.790Z,14.50
2018-09-11T22:08:04.153Z,12.88
2018-09-11T22:10:33.700Z,11.57
2018-09-11T22:13:05.151Z,17.60
2018-09-11T22:15:38.784Z,11.88
2018-09-11T22:18:14.369Z,17.92
2018-09-11T22:20:44.282Z,12.65
2018-09-11T22:23:12.907Z,14.30
2018-09-11T22:26:00.585Z,14.60
2018-09-11T22:28:29.118Z,18.00
2018-09-11T22:31:03.432Z,14.00
2018-09-11T22:33:34.600Z,13.58
2018-09-11T22:36:03.051Z,14.98
2018-09-11T22:38:32.490Z,14.83
2018-09-11T22:41:00.836Z,15.53
2018-09-11T22:43:33.038Z,15.28
2018-09-11T22:46:01.784Z,21.05
2018-09-11T22:48:30.639Z,14.73
2018-09-11T22:51:01.378Z,16.42
2018-09-11T22:53:30.734Z,17.02
2018-09-11T22:55:59.246Z,13.88
2018-09-11T22:58:31.169Z,15.40
2018-09-11T23:01:16.147Z,14.45
2018-09-11T23:03:49.237Z,13.88
2018-09-11T23:08:58.722Z,16.77
2018-09-11T23:11:30.241Z,15.23
2018-09-11T23:13:59.762Z,17.80
2018-09-11T23:16:32.355Z,16.17
2018-09-11T23:19:01.919Z,15.18
2018-09-11T23:21:32.361Z,16.45
2018-09-11T23:24:00.880Z,18.70
2018-09-11T23:26:29.285Z,15.90
2018-09-11T23:29:05.081Z,13.78
2018-09-11T23:34:19.507Z,16.93
2018-09-11T23:36:48.398Z,15.08
2018-09-11T23:39:17.475Z,15.80
2018-09-11T23:41:46.202Z,13.48
2018-09-11T23:44:16.113Z,12.82
2018-09-11T23:46:44.542Z,12.28
2018-09-11T23:49:13.006Z,13.08
2018-09-11T23:51:41.583Z,12.05
2018-09-11T23:54:11.092Z,13.72
2018-09-11T23:56:39.458Z,16.10
2018-09-11T23:59:07.909Z,13.30
